sensor_id;sensor_type;location;lat;lon;timestamp;temperature;humidity
79030;DHT22;68511;51.146;7.012;2024-01-11T00:00:08;12.70;49.00
79030;DHT22;68511;51.146;7.012;2024-01-11T00:01:09;12.70;49.00
79030;DHT22;68511;51.146;7.012;2024-01-11T00:02:10;12.70;48.90
79030;DHT22;68511;51.146;7.012;2024-01-11T00:03:10;12.70;49.00
79030;DHT22;68511;51.146;7.012;2024-01-11T00:04:11;12.70;48.90
79030;DHT22;68511;51.146;7.012;2024-01-11T00:05:11;12.70;48.90
79030;DHT22;68511;51.146;7.012;2024-01-11T00:06:12;12.70;48.90
79030;DHT22;68511;51.146;7.012;2024-01-11T00:07:12;12.70;48.90
79030;DHT22;68511;51.146;7.012;2024-01-11T00:08:13;12.70;49.00
79030;DHT22;68511;51.146;7.012;2024-01-11T00:09:13;12.70;48.90
79030;DHT22;68511;51.146;7.012;2024-01-11T00:10:14;12.70;48.90
79030;DHT22;68511;51.146;7.012;2024-01-11T00:11:14;12.70;49.00
79030;DHT22;68511;51.146;7.012;2024-01-11T00:12:15;12.70;49.00
79030;DHT22;68511;51.146;7.012;2024-01-11T00:13:15;12.70;49.00
79030;DHT22;68511;51.146;7.012;2024-01-11T00:14:16;12.70;49.00
79030;DHT22;68511;51.146;7.012;2024-01-11T00:15:16;12.70;48.90
79030;DHT22;68511;51.146;7.012;2024-01-11T00:16:17;12.70;48.90
79030;DHT22;68511;51.146;7.012;2024-01-11T00:17:17;12.70;48.90
79030;DHT22;68511;51.146;7.012;2024-01-11T00:18:18;12.70;48.90
79030;DHT22;68511;51.146;7.012;2024-01-11T00:19:18;12.70;48.90
79030;DHT22;68511;51.146;7.012;2024-01-11T00:20:19;12.70;48.90
79030;DHT22;68511;51.146;7.012;2024-01-11T00:21:19;12.70;48.80
79030;DHT22;68511;51.146;7.012;2024-01-11T00:22:19;12.70;48.80
79030;DHT22;68511;51.146;7.012;2024-01-11T00:23:20;12.70;49.40
79030;DHT22;68511;51.146;7.012;2024-01-11T00:24:20;12.70;48.80
79030;DHT22;68511;51.146;7.012;2024-01-11T00:25:21;12.70;48.80
79030;DHT22;68511;51.146;7.012;2024-01-11T00:26:21;12.70;48.80
79030;DHT22;68511;51.146;7.012;2024-01-11T00:27:22;12.70;48.70
79030;DHT22;68511;51.146;7.012;2024-01-11T00:28:22;12.80;48.80
79030;DHT22;68511;51.146;7.012;2024-01-11T00:29:23;12.70;48.70
79030;DHT22;68511;51.146;7.012;2024-01-11T00:30:23;12.70;48.80
79030;DHT22;68511;51.146;7.012;2024-01-11T00:31:23;12.70;48.80
79030;DHT22;68511;51.146;7.012;2024-01-11T00:32:24;12.70;48.80
79030;DHT22;68511;51.146;7.012;2024-01-11T00:33:24;12.70;48.80
79030;DHT22;68511;51.146;7.012;2024-01-11T00:34:25;12.70;48.80
79030;DHT22;68511;51.146;7.012;2024-01-11T00:35:25;12.70;48.90
79030;DHT22;68511;51.146;7.012;2024-01-11T00:36:26;12.70;48.90
79030;DHT22;68511;51.146;7.012;2024-01-11T00:37:26;12.70;48.90
79030;DHT22;68511;51.146;7.012;2024-01-11T00:38:27;12.70;48.90
79030;DHT22;68511;51.146;7.012;2024-01-11T00:39:27;12.70;48.90
79030;DHT22;68511;51.146;7.012;2024-01-11T00:40:29;12.70;48.90
79030;DHT22;68511;51.146;7.012;2024-01-11T00:41:29;12.70;48.90
79030;DHT22;68511;51.146;7.012;2024-01-11T00:42:30;12.70;48.90
79030;DHT22;68511;51.146;7.012;2024-01-11T00:43:30;12.70;48.90
79030;DHT22;68511;51.146;7.012;2024-01-11T00:44:31;12.70;48.90
79030;DHT22;68511;51.146;7.012;2024-01-11T00:45:31;12.70;48.90
79030;DHT22;68511;51.146;7.012;2024-01-11T00:46:31;12.70;48.90
79030;DHT22;68511;51.146;7.012;2024-01-11T00:47:32;12.70;48.90
79030;DHT22;68511;51.146;7.012;2024-01-11T00:48:33;12.70;48.90
79030;DHT22;68511;51.146;7.012;2024-01-11T00:49:33;12.70;48.90
79030;DHT22;68511;51.146;7.012;2024-01-11T00:50:33;12.70;48.90
79030;DHT22;68511;51.146;7.012;2024-01-11T00:51:34;12.70;48.90
79030;DHT22;68511;51.146;7.012;2024-01-11T00:52:34;12.70;48.90
79030;DHT22;68511;51.146;7.012;2024-01-11T00:53:35;12.70;48.90
79030;DHT22;68511;51.146;7.012;2024-01-11T00:54:35;12.70;48.80
79030;DHT22;68511;51.146;7.012;2024-01-11T00:55:36;12.70;48.80
79030;DHT22;68511;51.146;7.012;2024-01-11T00:56:36;12.70;48.80
79030;DHT22;68511;51.146;7.012;2024-01-11T00:57:37;12.70;48.80
79030;DHT22;68511;51.146;7.012;2024-01-11T00:58:38;12.70;48.80
79030;DHT22;68511;51.146;7.012;2024-01-11T00:59:39;12.70;48.80
79030;DHT22;68511;51.146;7.012;2024-01-11T01:00:40;12.70;48.80
79030;DHT22;68511;51.146;7.012;2024-01-11T01:01:40;12.70;48.80
79030;DHT22;68511;51.146;7.012;2024-01-11T01:02:46;12.70;48.80
79030;DHT22;68511;51.146;7.012;2024-01-11T01:03:46;12.70;48.80
79030;DHT22;68511;51.146;7.012;2024-01-11T01:04:47;12.70;49.10
79030;DHT22;68511;51.146;7.012;2024-01-11T01:05:48;12.70;48.80
79030;DHT22;68511;51.146;7.012;2024-01-11T01:06:49;12.70;48.80
79030;DHT22;68511;51.146;7.012;2024-01-11T01:07:49;12.70;48.80
79030;DHT22;68511;51.146;7.012;2024-01-11T01:08:51;12.70;48.80
79030;DHT22;68511;51.146;7.012;2024-01-11T01:09:52;12.70;48.80
79030;DHT22;68511;51.146;7.012;2024-01-11T01:10:52;12.70;48.80
79030;DHT22;68511;51.146;7.012;2024-01-11T01:11:52;12.70;48.80
79030;DHT22;68511;51.146;7.012;2024-01-11T01:12:53;12.70;48.80
79030;DHT22;68511;51.146;7.012;2024-01-11T01:13:53;12.70;48.70
79030;DHT22;68511;51.146;7.012;2024-01-11T01:14:54;12.70;48.70
79030;DHT22;68511;51.146;7.012;2024-01-11T01:15:55;12.70;48.70
79030;DHT22;68511;51.146;7.012;2024-01-11T01:16:56;12.70;48.70
79030;DHT22;68511;51.146;7.012;2024-01-11T01:17:56;12.70;48.70
79030;DHT22;68511;51.146;7.012;2024-01-11T01:18:57;12.70;48.70
79030;DHT22;68511;51.146;7.012;2024-01-11T01:19:57;12.70;48.70
79030;DHT22;68511;51.146;7.012;2024-01-11T01:20:58;12.70;48.70
79030;DHT22;68511;51.146;7.012;2024-01-11T01:21:58;12.70;48.70
79030;DHT22;68511;51.146;7.012;2024-01-11T01:22:59;12.70;48.70
79030;DHT22;68511;51.146;7.012;2024-01-11T01:23:59;12.70;48.70
79030;DHT22;68511;51.146;7.012;2024-01-11T01:24:59;12.70;48.70
79030;DHT22;68511;51.146;7.012;2024-01-11T01:26:00;12.70;48.70
79030;DHT22;68511;51.146;7.012;2024-01-11T01:27:00;12.70;48.80
79030;DHT22;68511;51.146;7.012;2024-01-11T01:28:01;12.70;48.70
79030;DHT22;68511;51.146;7.012;2024-01-11T01:29:01;12.70;48.80
79030;DHT22;68511;51.146;7.012;2024-01-11T01:30:02;12.70;48.80
79030;DHT22;68511;51.146;7.012;2024-01-11T01:31:03;12.70;48.80
79030;DHT22;68511;51.146;7.012;2024-01-11T01:32:03;12.70;48.70
79030;DHT22;68511;51.146;7.012;2024-01-11T01:33:04;12.70;48.80
79030;DHT22;68511;51.146;7.012;2024-01-11T01:34:04;12.70;48.70
79030;DHT22;68511;51.146;7.012;2024-01-11T01:35:05;12.70;48.70
79030;DHT22;68511;51.146;7.012;2024-01-11T01:36:07;12.70;48.80
79030;DHT22;68511;51.146;7.012;2024-01-11T01:37:08;12.70;48.70
79030;DHT22;68511;51.146;7.012;2024-01-11T01:38:08;12.70;48.70
79030;DHT22;68511;51.146;7.012;2024-01-11T01:39:09;12.70;48.80
79030;DHT22;68511;51.146;7.012;2024-01-11T01:40:10;12.70;48.80
79030;DHT22;68511;51.146;7.012;2024-01-11T01:41:11;12.70;48.80
79030;DHT22;68511;51.146;7.012;2024-01-11T01:42:11;12.70;48.80
79030;DHT22;68511;51.146;7.012;2024-01-11T01:43:12;12.70;48.80
79030;DHT22;68511;51.146;7.012;2024-01-11T01:44:13;12.70;48.80
79030;DHT22;68511;51.146;7.012;2024-01-11T01:45:14;12.70;48.80
79030;DHT22;68511;51.146;7.012;2024-01-11T01:46:15;12.70;48.80
79030;DHT22;68511;51.146;7.012;2024-01-11T01:47:19;12.70;48.80
79030;DHT22;68511;51.146;7.012;2024-01-11T01:48:20;12.70;48.80
79030;DHT22;68511;51.146;7.012;2024-01-11T01:49:21;12.70;48.70
79030;DHT22;68511;51.146;7.012;2024-01-11T01:50:22;12.70;48.70
79030;DHT22;68511;51.146;7.012;2024-01-11T01:51:24;12.70;48.70
79030;DHT22;68511;51.146;7.012;2024-01-11T01:52:26;12.70;48.70
79030;DHT22;68511;51.146;7.012;2024-01-11T01:53:27;12.70;49.30
79030;DHT22;68511;51.146;7.012;2024-01-11T01:54:28;12.70;48.70
79030;DHT22;68511;51.146;7.012;2024-01-11T01:55:29;12.70;48.70
79030;DHT22;68511;51.146;7.012;2024-01-11T01:56:30;12.70;48.70
79030;DHT22;68511;51.146;7.012;2024-01-11T01:57:32;12.70;48.70
79030;DHT22;68511;51.146;7.012;2024-01-11T01:58:33;12.70;48.70
79030;DHT22;68511;51.146;7.012;2024-01-11T01:59:34;12.70;48.70
79030;DHT22;68511;51.146;7.012;2024-01-11T02:00:35;12.70;48.80
79030;DHT22;68511;51.146;7.012;2024-01-11T02:01:36;12.70;48.80
79030;DHT22;68511;51.146;7.012;2024-01-11T02:02:37;12.70;48.80
79030;DHT22;68511;51.146;7.012;2024-01-11T02:03:38;12.70;48.80
79030;DHT22;68511;51.146;7.012;2024-01-11T02:04:38;12.70;49.30
79030;DHT22;68511;51.146;7.012;2024-01-11T02:05:39;12.70;48.80
79030;DHT22;68511;51.146;7.012;2024-01-11T02:06:39;12.70;48.70
79030;DHT22;68511;51.146;7.012;2024-01-11T02:07:40;12.70;48.70
79030;DHT22;68511;51.146;7.012;2024-01-11T02:08:44;12.70;48.70
79030;DHT22;68511;51.146;7.012;2024-01-11T02:09:45;12.70;48.70
79030;DHT22;68511;51.146;7.012;2024-01-11T02:10:46;12.70;48.60
79030;DHT22;68511;51.146;7.012;2024-01-11T02:11:47;12.70;48.60
79030;DHT22;68511;51.146;7.012;2024-01-11T02:12:48;12.70;48.60
79030;DHT22;68511;51.146;7.012;2024-01-11T02:13:51;12.70;48.60
79030;DHT22;68511;51.146;7.012;2024-01-11T02:14:54;12.70;49.20
79030;DHT22;68511;51.146;7.012;2024-01-11T02:15:55;12.70;48.60
79030;DHT22;68511;51.146;7.012;2024-01-11T02:16:55;12.70;48.60
79030;DHT22;68511;51.146;7.012;2024-01-11T02:17:56;12.70;48.60
79030;DHT22;68511;51.146;7.012;2024-01-11T02:18:56;12.70;48.60
79030;DHT22;68511;51.146;7.012;2024-01-11T02:19:57;12.70;48.70
79030;DHT22;68511;51.146;7.012;2024-01-11T02:20:57;12.70;48.70
79030;DHT22;68511;51.146;7.012;2024-01-11T02:21:58;12.70;48.70
79030;DHT22;68511;51.146;7.012;2024-01-11T02:23:05;12.70;48.70
79030;DHT22;68511;51.146;7.012;2024-01-11T02:24:06;12.70;48.70
79030;DHT22;68511;51.146;7.012;2024-01-11T02:25:07;12.70;48.70
79030;DHT22;68511;51.146;7.012;2024-01-11T02:26:07;12.70;48.70
79030;DHT22;68511;51.146;7.012;2024-01-11T02:27:08;12.70;48.80
79030;DHT22;68511;51.146;7.012;2024-01-11T02:28:10;12.70;48.70
79030;DHT22;68511;51.146;7.012;2024-01-11T02:29:11;12.70;48.70
79030;DHT22;68511;51.146;7.012;2024-01-11T02:30:12;12.70;48.70
79030;DHT22;68511;51.146;7.012;2024-01-11T02:31:12;12.70;48.70
79030;DHT22;68511;51.146;7.012;2024-01-11T02:32:13;12.70;48.70
79030;DHT22;68511;51.146;7.012;2024-01-11T02:33:14;12.70;48.70
79030;DHT22;68511;51.146;7.012;2024-01-11T02:34:16;12.70;48.70
79030;DHT22;68511;51.146;7.012;2024-01-11T02:35:16;12.70;48.70
79030;DHT22;68511;51.146;7.012;2024-01-11T02:36:17;12.70;48.70
79030;DHT22;68511;51.146;7.012;2024-01-11T02:37:18;12.70;48.70
79030;DHT22;68511;51.146;7.012;2024-01-11T02:38:19;12.70;48.70
79030;DHT22;68511;51.146;7.012;2024-01-11T02:39:20;12.70;48.70
79030;DHT22;68511;51.146;7.012;2024-01-11T02:40:21;12.70;48.70
79030;DHT22;68511;51.146;7.012;2024-01-11T02:41:21;12.70;48.70
79030;DHT22;68511;51.146;7.012;2024-01-11T02:42:22;12.70;48.70
79030;DHT22;68511;51.146;7.012;2024-01-11T02:43:23;12.70;48.70
79030;DHT22;68511;51.146;7.012;2024-01-11T02:44:24;12.70;48.70
79030;DHT22;68511;51.146;7.012;2024-01-11T02:45:24;12.70;48.70
79030;DHT22;68511;51.146;7.012;2024-01-11T02:46:25;12.70;48.70
79030;DHT22;68511;51.146;7.012;2024-01-11T02:47:25;12.70;48.70
79030;DHT22;68511;51.146;7.012;2024-01-11T02:48:29;12.70;48.70
79030;DHT22;68511;51.146;7.012;2024-01-11T02:49:29;12.70;48.70
79030;DHT22;68511;51.146;7.012;2024-01-11T02:50:30;12.70;48.70
79030;DHT22;68511;51.146;7.012;2024-01-11T02:51:30;12.70;48.70
79030;DHT22;68511;51.146;7.012;2024-01-11T02:52:31;12.70;48.70
79030;DHT22;68511;51.146;7.012;2024-01-11T02:53:31;12.70;48.70
79030;DHT22;68511;51.146;7.012;2024-01-11T02:54:34;12.70;48.70
79030;DHT22;68511;51.146;7.012;2024-01-11T02:55:34;12.70;48.70
79030;DHT22;68511;51.146;7.012;2024-01-11T02:56:35;12.70;48.70
79030;DHT22;68511;51.146;7.012;2024-01-11T02:57:35;12.70;48.70
79030;DHT22;68511;51.146;7.012;2024-01-11T02:58:36;12.70;48.70
79030;DHT22;68511;51.146;7.012;2024-01-11T02:59:36;12.70;48.60
79030;DHT22;68511;51.146;7.012;2024-01-11T03:00:37;12.70;48.60
79030;DHT22;68511;51.146;7.012;2024-01-11T03:01:37;12.70;48.60
79030;DHT22;68511;51.146;7.012;2024-01-11T03:02:37;12.70;48.60
79030;DHT22;68511;51.146;7.012;2024-01-11T03:03:38;12.70;48.50
79030;DHT22;68511;51.146;7.012;2024-01-11T03:04:39;12.70;48.50
79030;DHT22;68511;51.146;7.012;2024-01-11T03:05:39;12.70;48.50
79030;DHT22;68511;51.146;7.012;2024-01-11T03:06:40;12.70;48.50
79030;DHT22;68511;51.146;7.012;2024-01-11T03:07:40;12.70;48.50
79030;DHT22;68511;51.146;7.012;2024-01-11T03:08:41;12.70;48.50
79030;DHT22;68511;51.146;7.012;2024-01-11T03:09:41;12.70;48.50
79030;DHT22;68511;51.146;7.012;2024-01-11T03:10:42;12.70;48.50
79030;DHT22;68511;51.146;7.012;2024-01-11T03:11:42;12.70;48.60
79030;DHT22;68511;51.146;7.012;2024-01-11T03:12:43;12.70;48.50
79030;DHT22;68511;51.146;7.012;2024-01-11T03:13:43;12.70;48.60
79030;DHT22;68511;51.146;7.012;2024-01-11T03:14:44;12.70;49.20
79030;DHT22;68511;51.146;7.012;2024-01-11T03:15:44;12.70;48.60
79030;DHT22;68511;51.146;7.012;2024-01-11T03:16:44;12.70;48.70
79030;DHT22;68511;51.146;7.012;2024-01-11T03:17:45;12.70;48.60
79030;DHT22;68511;51.146;7.012;2024-01-11T03:18:45;12.70;48.70
79030;DHT22;68511;51.146;7.012;2024-01-11T03:19:46;12.70;48.60
79030;DHT22;68511;51.146;7.012;2024-01-11T03:20:46;12.70;48.70
79030;DHT22;68511;51.146;7.012;2024-01-11T03:21:47;12.60;48.60
79030;DHT22;68511;51.146;7.012;2024-01-11T03:22:47;12.70;48.70
79030;DHT22;68511;51.146;7.012;2024-01-11T03:23:48;12.60;48.60
79030;DHT22;68511;51.146;7.012;2024-01-11T03:24:48;12.60;48.60
79030;DHT22;68511;51.146;7.012;2024-01-11T03:25:48;12.70;48.70
79030;DHT22;68511;51.146;7.012;2024-01-11T03:26:49;12.70;48.60
79030;DHT22;68511;51.146;7.012;2024-01-11T03:27:49;12.70;48.60
79030;DHT22;68511;51.146;7.012;2024-01-11T03:28:50;12.70;48.60
79030;DHT22;68511;51.146;7.012;2024-01-11T03:29:50;12.70;48.60
79030;DHT22;68511;51.146;7.012;2024-01-11T03:30:51;12.70;48.60
79030;DHT22;68511;51.146;7.012;2024-01-11T03:31:51;12.70;48.60
79030;DHT22;68511;51.146;7.012;2024-01-11T03:32:52;12.70;48.50
79030;DHT22;68511;51.146;7.012;2024-01-11T03:33:52;12.70;48.60
79030;DHT22;68511;51.146;7.012;2024-01-11T03:34:52;12.70;48.50
79030;DHT22;68511;51.146;7.012;2024-01-11T03:35:53;12.70;48.50
79030;DHT22;68511;51.146;7.012;2024-01-11T03:36:53;12.70;48.60
79030;DHT22;68511;51.146;7.012;2024-01-11T03:37:54;12.70;48.60
79030;DHT22;68511;51.146;7.012;2024-01-11T03:38:54;12.70;48.60
79030;DHT22;68511;51.146;7.012;2024-01-11T03:39:54;12.70;48.60
79030;DHT22;68511;51.146;7.012;2024-01-11T03:40:55;12.70;48.50
79030;DHT22;68511;51.146;7.012;2024-01-11T03:41:55;12.60;48.50
79030;DHT22;68511;51.146;7.012;2024-01-11T03:42:56;12.70;48.50
79030;DHT22;68511;51.146;7.012;2024-01-11T03:43:56;12.70;48.60
79030;DHT22;68511;51.146;7.012;2024-01-11T03:44:57;12.70;48.50
79030;DHT22;68511;51.146;7.012;2024-01-11T03:45:57;12.70;48.50
79030;DHT22;68511;51.146;7.012;2024-01-11T03:46:57;12.70;48.60
79030;DHT22;68511;51.146;7.012;2024-01-11T03:47:58;12.60;48.50
79030;DHT22;68511;51.146;7.012;2024-01-11T03:48:58;12.70;48.60
79030;DHT22;68511;51.146;7.012;2024-01-11T03:50:00;12.60;48.50
79030;DHT22;68511;51.146;7.012;2024-01-11T03:51:00;12.60;48.60
79030;DHT22;68511;51.146;7.012;2024-01-11T03:52:01;12.70;48.60
79030;DHT22;68511;51.146;7.012;2024-01-11T03:53:01;12.70;48.50
79030;DHT22;68511;51.146;7.012;2024-01-11T03:54:03;12.70;48.50
79030;DHT22;68511;51.146;7.012;2024-01-11T03:55:03;12.70;48.50
79030;DHT22;68511;51.146;7.012;2024-01-11T03:56:04;12.70;48.40
79030;DHT22;68511;51.146;7.012;2024-01-11T03:57:04;12.70;48.40
79030;DHT22;68511;51.146;7.012;2024-01-11T03:58:05;12.70;48.50
79030;DHT22;68511;51.146;7.012;2024-01-11T03:59:05;12.70;48.40
79030;DHT22;68511;51.146;7.012;2024-01-11T04:00:08;12.70;48.40
79030;DHT22;68511;51.146;7.012;2024-01-11T04:01:09;12.70;48.40
79030;DHT22;68511;51.146;7.012;2024-01-11T04:02:10;12.70;48.30
79030;DHT22;68511;51.146;7.012;2024-01-11T04:03:11;12.70;48.50
79030;DHT22;68511;51.146;7.012;2024-01-11T04:04:11;12.70;48.40
79030;DHT22;68511;51.146;7.012;2024-01-11T04:05:12;12.70;48.50
79030;DHT22;68511;51.146;7.012;2024-01-11T04:06:20;12.70;48.50
79030;DHT22;68511;51.146;7.012;2024-01-11T04:07:21;12.70;48.50
79030;DHT22;68511;51.146;7.012;2024-01-11T04:08:21;12.70;48.50
79030;DHT22;68511;51.146;7.012;2024-01-11T04:09:22;12.60;48.40
79030;DHT22;68511;51.146;7.012;2024-01-11T04:10:22;12.70;48.60
79030;DHT22;68511;51.146;7.012;2024-01-11T04:11:23;12.70;48.50
79030;DHT22;68511;51.146;7.012;2024-01-11T04:12:23;12.70;48.50
79030;DHT22;68511;51.146;7.012;2024-01-11T04:13:24;12.70;48.50
79030;DHT22;68511;51.146;7.012;2024-01-11T04:14:25;12.70;48.50
79030;DHT22;68511;51.146;7.012;2024-01-11T04:15:25;12.70;48.50
79030;DHT22;68511;51.146;7.012;2024-01-11T04:16:26;12.70;48.50
79030;DHT22;68511;51.146;7.012;2024-01-11T04:17:26;12.70;48.50
79030;DHT22;68511;51.146;7.012;2024-01-11T04:18:26;12.70;48.50
79030;DHT22;68511;51.146;7.012;2024-01-11T04:19:27;12.70;48.50
79030;DHT22;68511;51.146;7.012;2024-01-11T04:20:27;12.70;48.50
79030;DHT22;68511;51.146;7.012;2024-01-11T04:21:28;12.70;48.50
79030;DHT22;68511;51.146;7.012;2024-01-11T04:22:29;12.60;48.40
79030;DHT22;68511;51.146;7.012;2024-01-11T04:23:29;12.60;48.40
79030;DHT22;68511;51.146;7.012;2024-01-11T04:24:30;12.70;48.50
79030;DHT22;68511;51.146;7.012;2024-01-11T04:25:30;12.70;48.50
79030;DHT22;68511;51.146;7.012;2024-01-11T04:26:31;12.60;48.40
79030;DHT22;68511;51.146;7.012;2024-01-11T04:27:31;12.60;48.40
79030;DHT22;68511;51.146;7.012;2024-01-11T04:28:32;12.70;48.50
79030;DHT22;68511;51.146;7.012;2024-01-11T04:29:32;12.70;48.50
79030;DHT22;68511;51.146;7.012;2024-01-11T04:30:32;12.70;48.50
79030;DHT22;68511;51.146;7.012;2024-01-11T04:31:33;12.70;48.50
79030;DHT22;68511;51.146;7.012;2024-01-11T04:32:33;12.70;48.50
79030;DHT22;68511;51.146;7.012;2024-01-11T04:33:34;12.70;48.50
79030;DHT22;68511;51.146;7.012;2024-01-11T04:34:34;12.70;48.50
79030;DHT22;68511;51.146;7.012;2024-01-11T04:35:35;12.70;48.40
79030;DHT22;68511;51.146;7.012;2024-01-11T04:36:39;12.70;48.90
79030;DHT22;68511;51.146;7.012;2024-01-11T04:37:40;12.70;48.50
79030;DHT22;68511;51.146;7.012;2024-01-11T04:38:40;12.70;48.50
79030;DHT22;68511;51.146;7.012;2024-01-11T04:39:40;12.70;48.50
79030;DHT22;68511;51.146;7.012;2024-01-11T04:40:41;12.70;48.50
79030;DHT22;68511;51.146;7.012;2024-01-11T04:41:41;12.70;48.50
79030;DHT22;68511;51.146;7.012;2024-01-11T04:42:42;12.60;48.30
79030;DHT22;68511;51.146;7.012;2024-01-11T04:43:43;12.60;48.30
79030;DHT22;68511;51.146;7.012;2024-01-11T04:44:44;12.60;48.40
79030;DHT22;68511;51.146;7.012;2024-01-11T04:45:44;12.70;48.50
79030;DHT22;68511;51.146;7.012;2024-01-11T04:46:44;12.70;48.50
79030;DHT22;68511;51.146;7.012;2024-01-11T04:47:45;12.70;48.40
79030;DHT22;68511;51.146;7.012;2024-01-11T04:48:46;12.70;48.40
79030;DHT22;68511;51.146;7.012;2024-01-11T04:49:46;12.70;48.40
79030;DHT22;68511;51.146;7.012;2024-01-11T04:50:47;12.70;48.40
79030;DHT22;68511;51.146;7.012;2024-01-11T04:51:47;12.70;48.40
79030;DHT22;68511;51.146;7.012;2024-01-11T04:52:47;12.70;48.30
79030;DHT22;68511;51.146;7.012;2024-01-11T04:53:48;12.70;48.40
79030;DHT22;68511;51.146;7.012;2024-01-11T04:54:48;12.70;48.40
79030;DHT22;68511;51.146;7.012;2024-01-11T04:55:49;12.70;48.40
79030;DHT22;68511;51.146;7.012;2024-01-11T04:56:49;12.70;48.40
79030;DHT22;68511;51.146;7.012;2024-01-11T04:57:50;12.70;48.40
79030;DHT22;68511;51.146;7.012;2024-01-11T04:58:50;12.70;48.40
79030;DHT22;68511;51.146;7.012;2024-01-11T04:59:51;12.70;48.40
79030;DHT22;68511;51.146;7.012;2024-01-11T05:00:51;12.70;48.30
79030;DHT22;68511;51.146;7.012;2024-01-11T05:01:52;12.70;48.40
79030;DHT22;68511;51.146;7.012;2024-01-11T05:02:53;12.70;48.40
79030;DHT22;68511;51.146;7.012;2024-01-11T05:03:53;12.70;48.40
79030;DHT22;68511;51.146;7.012;2024-01-11T05:04:54;12.70;48.40
79030;DHT22;68511;51.146;7.012;2024-01-11T05:05:54;12.70;48.40
79030;DHT22;68511;51.146;7.012;2024-01-11T05:06:55;12.70;48.40
79030;DHT22;68511;51.146;7.012;2024-01-11T05:07:55;12.60;48.30
79030;DHT22;68511;51.146;7.012;2024-01-11T05:08:56;12.70;48.40
79030;DHT22;68511;51.146;7.012;2024-01-11T05:09:56;12.70;48.40
79030;DHT22;68511;51.146;7.012;2024-01-11T05:10:56;12.70;48.40
79030;DHT22;68511;51.146;7.012;2024-01-11T05:11:57;12.60;48.30
79030;DHT22;68511;51.146;7.012;2024-01-11T05:12:58;12.60;48.30
79030;DHT22;68511;51.146;7.012;2024-01-11T05:13:58;12.60;48.30
79030;DHT22;68511;51.146;7.012;2024-01-11T05:14:59;12.70;48.40
79030;DHT22;68511;51.146;7.012;2024-01-11T05:15:59;12.60;48.30
79030;DHT22;68511;51.146;7.012;2024-01-11T05:16:59;12.60;48.30
79030;DHT22;68511;51.146;7.012;2024-01-11T05:18:00;12.70;48.40
79030;DHT22;68511;51.146;7.012;2024-01-11T05:19:01;12.60;48.30
79030;DHT22;68511;51.146;7.012;2024-01-11T05:20:01;12.60;48.30
79030;DHT22;68511;51.146;7.012;2024-01-11T05:21:02;12.60;48.30
79030;DHT22;68511;51.146;7.012;2024-01-11T05:22:03;12.60;48.90
79030;DHT22;68511;51.146;7.012;2024-01-11T05:23:03;12.70;48.30
79030;DHT22;68511;51.146;7.012;2024-01-11T05:24:04;12.60;48.30
79030;DHT22;68511;51.146;7.012;2024-01-11T05:25:04;12.70;48.30
79030;DHT22;68511;51.146;7.012;2024-01-11T05:26:05;12.60;48.20
79030;DHT22;68511;51.146;7.012;2024-01-11T05:27:06;12.70;48.30
79030;DHT22;68511;51.146;7.012;2024-01-11T05:28:06;12.60;48.30
79030;DHT22;68511;51.146;7.012;2024-01-11T05:29:06;12.60;48.20
79030;DHT22;68511;51.146;7.012;2024-01-11T05:30:07;12.60;48.20
79030;DHT22;68511;51.146;7.012;2024-01-11T05:31:11;12.70;48.30
79030;DHT22;68511;51.146;7.012;2024-01-11T05:32:11;12.70;48.30
79030;DHT22;68511;51.146;7.012;2024-01-11T05:33:12;12.70;48.30
79030;DHT22;68511;51.146;7.012;2024-01-11T05:34:12;12.70;48.30
79030;DHT22;68511;51.146;7.012;2024-01-11T05:35:13;12.70;48.30
79030;DHT22;68511;51.146;7.012;2024-01-11T05:36:14;12.70;48.30
79030;DHT22;68511;51.146;7.012;2024-01-11T05:37:14;12.70;48.30
79030;DHT22;68511;51.146;7.012;2024-01-11T05:38:15;12.70;48.30
79030;DHT22;68511;51.146;7.012;2024-01-11T05:39:15;12.70;48.30
79030;DHT22;68511;51.146;7.012;2024-01-11T05:40:16;12.70;48.30
79030;DHT22;68511;51.146;7.012;2024-01-11T05:41:16;12.70;48.30
79030;DHT22;68511;51.146;7.012;2024-01-11T05:42:17;12.70;48.30
79030;DHT22;68511;51.146;7.012;2024-01-11T05:43:17;12.70;48.30
79030;DHT22;68511;51.146;7.012;2024-01-11T05:44:18;12.70;48.30
79030;DHT22;68511;51.146;7.012;2024-01-11T05:45:18;12.70;48.30
79030;DHT22;68511;51.146;7.012;2024-01-11T05:46:19;12.70;48.30
79030;DHT22;68511;51.146;7.012;2024-01-11T05:47:19;12.70;48.30
79030;DHT22;68511;51.146;7.012;2024-01-11T05:48:20;12.70;48.30
79030;DHT22;68511;51.146;7.012;2024-01-11T05:49:20;12.70;48.20
79030;DHT22;68511;51.146;7.012;2024-01-11T05:50:20;12.70;48.20
79030;DHT22;68511;51.146;7.012;2024-01-11T05:51:21;12.70;48.20
79030;DHT22;68511;51.146;7.012;2024-01-11T05:52:21;12.70;48.20
79030;DHT22;68511;51.146;7.012;2024-01-11T05:53:22;12.70;48.30
79030;DHT22;68511;51.146;7.012;2024-01-11T05:54:22;12.70;48.30
79030;DHT22;68511;51.146;7.012;2024-01-11T05:55:23;12.70;48.30
79030;DHT22;68511;51.146;7.012;2024-01-11T05:56:23;12.70;48.30
79030;DHT22;68511;51.146;7.012;2024-01-11T05:57:24;12.70;48.30
79030;DHT22;68511;51.146;7.012;2024-01-11T05:58:24;12.70;48.30
79030;DHT22;68511;51.146;7.012;2024-01-11T05:59:25;12.70;48.30
79030;DHT22;68511;51.146;7.012;2024-01-11T06:00:26;12.70;48.30
79030;DHT22;68511;51.146;7.012;2024-01-11T06:01:26;12.70;48.30
79030;DHT22;68511;51.146;7.012;2024-01-11T06:02:27;12.70;48.30
79030;DHT22;68511;51.146;7.012;2024-01-11T06:03:27;12.60;48.20
79030;DHT22;68511;51.146;7.012;2024-01-11T06:04:28;12.60;48.20
79030;DHT22;68511;51.146;7.012;2024-01-11T06:05:29;12.60;48.20
79030;DHT22;68511;51.146;7.012;2024-01-11T06:06:29;12.60;48.30
79030;DHT22;68511;51.146;7.012;2024-01-11T06:07:29;12.60;48.20
79030;DHT22;68511;51.146;7.012;2024-01-11T06:08:30;12.70;48.30
79030;DHT22;68511;51.146;7.012;2024-01-11T06:09:31;12.60;48.20
79030;DHT22;68511;51.146;7.012;2024-01-11T06:10:31;12.60;48.30
79030;DHT22;68511;51.146;7.012;2024-01-11T06:11:31;12.70;48.30
79030;DHT22;68511;51.146;7.012;2024-01-11T06:12:32;12.70;48.30
79030;DHT22;68511;51.146;7.012;2024-01-11T06:13:33;12.70;48.30
79030;DHT22;68511;51.146;7.012;2024-01-11T06:14:33;12.70;48.30
79030;DHT22;68511;51.146;7.012;2024-01-11T06:15:34;12.70;48.30
79030;DHT22;68511;51.146;7.012;2024-01-11T06:16:34;12.60;48.20
79030;DHT22;68511;51.146;7.012;2024-01-11T06:17:35;12.70;48.30
79030;DHT22;68511;51.146;7.012;2024-01-11T06:18:35;12.60;48.30
79030;DHT22;68511;51.146;7.012;2024-01-11T06:19:36;12.60;48.80
79030;DHT22;68511;51.146;7.012;2024-01-11T06:20:37;12.60;48.30
79030;DHT22;68511;51.146;7.012;2024-01-11T06:21:37;12.60;48.30
79030;DHT22;68511;51.146;7.012;2024-01-11T06:22:38;12.60;48.30